sensor_id;sensor_type;location;lat;lon;timestamp;P1;durP1;ratioP1;P2;durP2;ratioP2
36547;SDS011;22551;52.206;4.856;2023-05-14T00:02:31;15.30;;;8.48;;
36547;SDS011;22551;52.206;4.856;2023-05-14T00:07:35;18.92;;;8.60;;
36547;SDS011;22551;52.206;4.856;2023-05-14T00:12:37;22.55;;;9.57;;
36547;SDS011;22551;52.206;4.856;2023-05-14T00:17:40;16.23;;;8.60;;
36547;SDS011;22551;52.206;4.856;2023-05-14T00:22:45;17.77;;;8.90;;
36547;SDS011;22551;52.206;4.856;2023-05-14T00:27:47;16.70;;;8.30;;
36547;SDS011;22551;52.206;4.856;2023-05-14T00:32:49;15.50;;;9.45;;
36547;SDS011;22551;52.206;4.856;2023-05-14T00:37:52;17.88;;;9.45;;
36547;SDS011;22551;52.206;4.856;2023-05-14T00:42:54;16.08;;;8.75;;
36547;SDS011;22551;52.206;4.856;2023-05-14T00:47:58;16.50;;;9.52;;
36547;SDS011;22551;52.206;4.856;2023-05-14T00:53:02;18.60;;;9.85;;
36547;SDS011;22551;52.206;4.856;2023-05-14T00:58:09;18.50;;;9.48;;
36547;SDS011;22551;52.206;4.856;2023-05-14T01:03:13;17.25;;;9.80;;
36547;SDS011;22551;52.206;4.856;2023-05-14T01:08:20;18.33;;;9.43;;
36547;SDS011;22551;52.206;4.856;2023-05-14T01:13:32;16.47;;;9.10;;
36547;SDS011;22551;52.206;4.856;2023-05-14T01:18:43;18.35;;;9.27;;
36547;SDS011;22551;52.206;4.856;2023-05-14T01:23:51;21.90;;;9.73;;
36547;SDS011;22551;52.206;4.856;2023-05-14T01:28:53;20.98;;;9.57;;
36547;SDS011;22551;52.206;4.856;2023-05-14T01:34:04;21.70;;;9.23;;
36547;SDS011;22551;52.206;4.856;2023-05-14T01:39:08;17.70;;;9.65;;
36547;SDS011;22551;52.206;4.856;2023-05-14T01:44:11;20.63;;;9.50;;
36547;SDS011;22551;52.206;4.856;2023-05-14T01:49:14;21.10;;;10.05;;
36547;SDS011;22551;52.206;4.856;2023-05-14T01:54:19;17.38;;;9.73;;
36547;SDS011;22551;52.206;4.856;2023-05-14T01:59:21;14.63;;;9.27;;
36547;SDS011;22551;52.206;4.856;2023-05-14T02:04:23;19.83;;;9.82;;
36547;SDS011;22551;52.206;4.856;2023-05-14T02:09:27;18.48;;;9.77;;
36547;SDS011;22551;52.206;4.856;2023-05-14T02:14:29;17.95;;;9.20;;
36547;SDS011;22551;52.206;4.856;2023-05-14T02:19:31;19.73;;;9.82;;
36547;SDS011;22551;52.206;4.856;2023-05-14T02:24:35;16.50;;;8.73;;
36547;SDS011;22551;52.206;4.856;2023-05-14T02:29:38;16.88;;;9.85;;
36547;SDS011;22551;52.206;4.856;2023-05-14T02:34:40;20.23;;;10.27;;
36547;SDS011;22551;52.206;4.856;2023-05-14T02:39:43;23.67;;;9.52;;
36547;SDS011;22551;52.206;4.856;2023-05-14T02:44:46;19.83;;;9.57;;
36547;SDS011;22551;52.206;4.856;2023-05-14T02:49:48;22.45;;;9.88;;
36547;SDS011;22551;52.206;4.856;2023-05-14T02:54:52;20.17;;;9.40;;
36547;SDS011;22551;52.206;4.856;2023-05-14T02:59:54;21.90;;;10.10;;
36547;SDS011;22551;52.206;4.856;2023-05-14T03:04:58;21.95;;;10.60;;
36547;SDS011;22551;52.206;4.856;2023-05-14T03:10:01;18.85;;;10.02;;
36547;SDS011;22551;52.206;4.856;2023-05-14T03:15:04;22.02;;;10.55;;
36547;SDS011;22551;52.206;4.856;2023-05-14T03:20:08;26.38;;;11.02;;
36547;SDS011;22551;52.206;4.856;2023-05-14T03:25:13;22.70;;;10.60;;
36547;SDS011;22551;52.206;4.856;2023-05-14T03:30:16;23.13;;;11.65;;
36547;SDS011;22551;52.206;4.856;2023-05-14T03:35:18;21.27;;;10.90;;
36547;SDS011;22551;52.206;4.856;2023-05-14T03:40:21;21.52;;;10.23;;
36547;SDS011;22551;52.206;4.856;2023-05-14T03:45:24;26.00;;;10.18;;
36547;SDS011;22551;52.206;4.856;2023-05-14T03:50:29;33.03;;;10.77;;
36547;SDS011;22551;52.206;4.856;2023-05-14T03:55:35;18.88;;;10.07;;
36547;SDS011;22551;52.206;4.856;2023-05-14T04:00:40;21.10;;;10.25;;
36547;SDS011;22551;52.206;4.856;2023-05-14T04:05:42;25.25;;;10.15;;
36547;SDS011;22551;52.206;4.856;2023-05-14T04:10:48;19.05;;;9.95;;
36547;SDS011;22551;52.206;4.856;2023-05-14T04:15:52;19.58;;;10.05;;
36547;SDS011;22551;52.206;4.856;2023-05-14T04:20:54;17.67;;;9.45;;
36547;SDS011;22551;52.206;4.856;2023-05-14T04:25:58;18.42;;;10.30;;
36547;SDS011;22551;52.206;4.856;2023-05-14T04:31:01;27.92;;;11.15;;
36547;SDS011;22551;52.206;4.856;2023-05-14T04:36:05;22.92;;;10.77;;
36547;SDS011;22551;52.206;4.856;2023-05-14T04:41:09;26.37;;;12.00;;
36547;SDS011;22551;52.206;4.856;2023-05-14T04:46:11;20.35;;;10.65;;
36547;SDS011;22551;52.206;4.856;2023-05-14T04:51:14;21.77;;;10.93;;
36547;SDS011;22551;52.206;4.856;2023-05-14T04:56:18;21.67;;;10.93;;
36547;SDS011;22551;52.206;4.856;2023-05-14T05:01:20;28.13;;;12.40;;
36547;SDS011;22551;52.206;4.856;2023-05-14T05:06:23;20.52;;;11.63;;
36547;SDS011;22551;52.206;4.856;2023-05-14T05:11:28;24.25;;;11.20;;
36547;SDS011;22551;52.206;4.856;2023-05-14T05:16:30;20.63;;;11.13;;
36547;SDS011;22551;52.206;4.856;2023-05-14T05:21:33;23.35;;;11.60;;
36547;SDS011;22551;52.206;4.856;2023-05-14T05:26:39;22.88;;;10.63;;
36547;SDS011;22551;52.206;4.856;2023-05-14T05:31:44;24.40;;;11.93;;
36547;SDS011;22551;52.206;4.856;2023-05-14T05:36:47;24.42;;;12.00;;
36547;SDS011;22551;52.206;4.856;2023-05-14T05:41:50;23.08;;;11.85;;
36547;SDS011;22551;52.206;4.856;2023-05-14T05:46:55;19.65;;;10.60;;
36547;SDS011;22551;52.206;4.856;2023-05-14T05:51:57;22.48;;;11.43;;
36547;SDS011;22551;52.206;4.856;2023-05-14T05:57:00;24.15;;;11.43;;
36547;SDS011;22551;52.206;4.856;2023-05-14T06:02:03;23.38;;;10.57;;
36547;SDS011;22551;52.206;4.856;2023-05-14T06:07:05;21.95;;;11.40;;
36547;SDS011;22551;52.206;4.856;2023-05-14T06:12:09;23.52;;;10.63;;
36547;SDS011;22551;52.206;4.856;2023-05-14T06:17:11;18.33;;;10.55;;
36547;SDS011;22551;52.206;4.856;2023-05-14T06:22:13;20.17;;;10.10;;
36547;SDS011;22551;52.206;4.856;2023-05-14T06:27:17;18.30;;;9.75;;
36547;SDS011;22551;52.206;4.856;2023-05-14T06:32:19;15.55;;;8.85;;
36547;SDS011;22551;52.206;4.856;2023-05-14T06:42:27;16.13;;;9.27;;
36547;SDS011;22551;52.206;4.856;2023-05-14T06:47:29;13.20;;;8.27;;
36547;SDS011;22551;52.206;4.856;2023-05-14T06:52:32;14.60;;;8.50;;
36547;SDS011;22551;52.206;4.856;2023-05-14T06:57:36;18.70;;;8.38;;
36547;SDS011;22551;52.206;4.856;2023-05-14T07:02:39;18.60;;;7.30;;
36547;SDS011;22551;52.206;4.856;2023-05-14T07:07:41;18.80;;;8.13;;
36547;SDS011;22551;52.206;4.856;2023-05-14T07:12:44;16.35;;;7.50;;
36547;SDS011;22551;52.206;4.856;2023-05-14T07:17:46;14.13;;;8.38;;
36547;SDS011;22551;52.206;4.856;2023-05-14T07:22:49;13.30;;;7.35;;
36547;SDS011;22551;52.206;4.856;2023-05-14T07:27:54;14.53;;;7.80;;
36547;SDS011;22551;52.206;4.856;2023-05-14T07:32:56;16.42;;;8.35;;
36547;SDS011;22551;52.206;4.856;2023-05-14T07:37:58;16.63;;;7.47;;
36547;SDS011;22551;52.206;4.856;2023-05-14T07:43:02;14.43;;;8.23;;
36547;SDS011;22551;52.206;4.856;2023-05-14T07:48:05;17.42;;;7.50;;
36547;SDS011;22551;52.206;4.856;2023-05-14T07:53:09;16.83;;;8.38;;
36547;SDS011;22551;52.206;4.856;2023-05-14T07:58:12;14.65;;;6.70;;
36547;SDS011;22551;52.206;4.856;2023-05-14T08:03:15;14.43;;;7.28;;
36547;SDS011;22551;52.206;4.856;2023-05-14T08:08:17;17.77;;;6.85;;
36547;SDS011;22551;52.206;4.856;2023-05-14T08:13:21;12.45;;;6.93;;
36547;SDS011;22551;52.206;4.856;2023-05-14T08:18:23;11.03;;;6.67;;
36547;SDS011;22551;52.206;4.856;2023-05-14T08:23:25;9.85;;;7.30;;
36547;SDS011;22551;52.206;4.856;2023-05-14T08:28:29;16.73;;;6.95;;
36547;SDS011;22551;52.206;4.856;2023-05-14T08:33:31;17.52;;;6.63;;
36547;SDS011;22551;52.206;4.856;2023-05-14T08:38:33;12.68;;;6.18;;
36547;SDS011;22551;52.206;4.856;2023-05-14T08:43:43;10.77;;;6.88;;
36547;SDS011;22551;52.206;4.856;2023-05-14T08:48:52;14.73;;;7.63;;
36547;SDS011;22551;52.206;4.856;2023-05-14T08:54:02;13.38;;;6.60;;
36547;SDS011;22551;52.206;4.856;2023-05-14T08:59:07;13.27;;;6.30;;
36547;SDS011;22551;52.206;4.856;2023-05-14T09:04:10;13.80;;;5.72;;
36547;SDS011;22551;52.206;4.856;2023-05-14T09:09:12;11.07;;;5.88;;
36547;SDS011;22551;52.206;4.856;2023-05-14T09:14:16;11.27;;;5.88;;
36547;SDS011;22551;52.206;4.856;2023-05-14T09:19:20;9.95;;;5.65;;
36547;SDS011;22551;52.206;4.856;2023-05-14T09:24:23;13.82;;;5.63;;
36547;SDS011;22551;52.206;4.856;2023-05-14T09:29:29;13.65;;;6.18;;
36547;SDS011;22551;52.206;4.856;2023-05-14T09:34:33;11.30;;;5.97;;
36547;SDS011;22551;52.206;4.856;2023-05-14T09:39:37;9.75;;;5.57;;
36547;SDS011;22551;52.206;4.856;2023-05-14T09:44:41;11.27;;;5.03;;
36547;SDS011;22551;52.206;4.856;2023-05-14T09:49:44;13.20;;;4.93;;
36547;SDS011;22551;52.206;4.856;2023-05-14T09:54:50;10.48;;;4.93;;
36547;SDS011;22551;52.206;4.856;2023-05-14T09:59:54;9.40;;;5.23;;
36547;SDS011;22551;52.206;4.856;2023-05-14T10:04:59;7.10;;;5.22;;
36547;SDS011;22551;52.206;4.856;2023-05-14T10:10:05;13.30;;;5.82;;
36547;SDS011;22551;52.206;4.856;2023-05-14T10:15:15;8.48;;;4.60;;
36547;SDS011;22551;52.206;4.856;2023-05-14T10:20:21;19.85;;;5.80;;
36547;SDS011;22551;52.206;4.856;2023-05-14T10:25:25;12.20;;;5.40;;
36547;SDS011;22551;52.206;4.856;2023-05-14T10:30:29;10.18;;;4.35;;
36547;SDS011;22551;52.206;4.856;2023-05-14T10:41:01;10.00;;;4.38;;
36547;SDS011;22551;52.206;4.856;2023-05-14T10:46:07;12.45;;;4.07;;
36547;SDS011;22551;52.206;4.856;2023-05-14T10:51:10;9.02;;;4.95;;
36547;SDS011;22551;52.206;4.856;2023-05-14T10:56:16;8.38;;;5.00;;
36547;SDS011;22551;52.206;4.856;2023-05-14T11:01:22;9.38;;;4.63;;
36547;SDS011;22551;52.206;4.856;2023-05-14T11:06:24;11.82;;;3.80;;
36547;SDS011;22551;52.206;4.856;2023-05-14T11:11:27;8.10;;;4.30;;
36547;SDS011;22551;52.206;4.856;2023-05-14T11:16:31;7.80;;;4.25;;
36547;SDS011;22551;52.206;4.856;2023-05-14T11:21:35;12.43;;;4.68;;
36547;SDS011;22551;52.206;4.856;2023-05-14T11:26:37;6.53;;;4.15;;
36547;SDS011;22551;52.206;4.856;2023-05-14T11:31:40;8.82;;;4.50;;
36547;SDS011;22551;52.206;4.856;2023-05-14T11:36:43;8.55;;;4.25;;
36547;SDS011;22551;52.206;4.856;2023-05-14T11:41:45;7.95;;;3.72;;
36547;SDS011;22551;52.206;4.856;2023-05-14T11:46:55;8.48;;;4.63;;
36547;SDS011;22551;52.206;4.856;2023-05-14T11:52:00;9.35;;;4.20;;
36547;SDS011;22551;52.206;4.856;2023-05-14T11:57:09;9.32;;;4.10;;
36547;SDS011;22551;52.206;4.856;2023-05-14T12:02:15;8.93;;;4.50;;
36547;SDS011;22551;52.206;4.856;2023-05-14T12:07:18;6.55;;;3.95;;
36547;SDS011;22551;52.206;4.856;2023-05-14T12:12:21;11.85;;;3.50;;
36547;SDS011;22551;52.206;4.856;2023-05-14T12:17:25;11.85;;;3.92;;
36547;SDS011;22551;52.206;4.856;2023-05-14T12:22:27;8.20;;;4.25;;
36547;SDS011;22551;52.206;4.856;2023-05-14T12:27:30;6.33;;;3.67;;
36547;SDS011;22551;52.206;4.856;2023-05-14T12:32:37;10.05;;;3.85;;
36547;SDS011;22551;52.206;4.856;2023-05-14T12:37:40;10.05;;;4.15;;
36547;SDS011;22551;52.206;4.856;2023-05-14T12:42:43;10.93;;;3.80;;
36547;SDS011;22551;52.206;4.856;2023-05-14T12:47:46;8.82;;;4.72;;
36547;SDS011;22551;52.206;4.856;2023-05-14T12:57:51;9.70;;;3.83;;
36547;SDS011;22551;52.206;4.856;2023-05-14T13:02:55;11.85;;;4.57;;
36547;SDS011;22551;52.206;4.856;2023-05-14T13:13:05;6.63;;;4.53;;
36547;SDS011;22551;52.206;4.856;2023-05-14T13:18:08;7.70;;;4.43;;
36547;SDS011;22551;52.206;4.856;2023-05-14T13:23:11;13.20;;;4.97;;
36547;SDS011;22551;52.206;4.856;2023-05-14T13:28:13;8.52;;;4.45;;
36547;SDS011;22551;52.206;4.856;2023-05-14T13:33:17;9.48;;;4.40;;
36547;SDS011;22551;52.206;4.856;2023-05-14T13:43:21;7.35;;;4.50;;
36547;SDS011;22551;52.206;4.856;2023-05-14T13:48:27;10.80;;;3.90;;
36547;SDS011;22551;52.206;4.856;2023-05-14T13:53:30;8.43;;;3.42;;
36547;SDS011;22551;52.206;4.856;2023-05-14T13:58:32;10.75;;;4.10;;
36547;SDS011;22551;52.206;4.856;2023-05-14T14:03:36;9.40;;;4.30;;
36547;SDS011;22551;52.206;4.856;2023-05-14T14:08:38;8.95;;;4.28;;
36547;SDS011;22551;52.206;4.856;2023-05-14T14:13:40;8.88;;;4.03;;
36547;SDS011;22551;52.206;4.856;2023-05-14T14:18:44;5.68;;;3.92;;
36547;SDS011;22551;52.206;4.856;2023-05-14T14:23:47;11.30;;;4.68;;
36547;SDS011;22551;52.206;4.856;2023-05-14T14:28:49;14.32;;;6.15;;
36547;SDS011;22551;52.206;4.856;2023-05-14T14:33:52;13.98;;;5.97;;
36547;SDS011;22551;52.206;4.856;2023-05-14T14:38:58;11.05;;;5.35;;
36547;SDS011;22551;52.206;4.856;2023-05-14T14:44:01;14.95;;;4.65;;
36547;SDS011;22551;52.206;4.856;2023-05-14T14:49:04;13.70;;;4.40;;
36547;SDS011;22551;52.206;4.856;2023-05-14T14:54:08;11.25;;;4.47;;
36547;SDS011;22551;52.206;4.856;2023-05-14T14:59:10;10.38;;;4.32;;
36547;SDS011;22551;52.206;4.856;2023-05-14T15:04:14;5.35;;;4.03;;
36547;SDS011;22551;52.206;4.856;2023-05-14T15:09:16;9.95;;;5.00;;
36547;SDS011;22551;52.206;4.856;2023-05-14T15:14:19;7.80;;;3.88;;
36547;SDS011;22551;52.206;4.856;2023-05-14T15:19:22;10.15;;;3.95;;
36547;SDS011;22551;52.206;4.856;2023-05-14T15:24:25;13.10;;;6.30;;
36547;SDS011;22551;52.206;4.856;2023-05-14T15:29:27;13.07;;;6.03;;
36547;SDS011;22551;52.206;4.856;2023-05-14T15:39:35;9.75;;;4.13;;
36547;SDS011;22551;52.206;4.856;2023-05-14T15:44:37;18.65;;;5.10;;
36547;SDS011;22551;52.206;4.856;2023-05-14T15:49:41;16.35;;;5.72;;
36547;SDS011;22551;52.206;4.856;2023-05-14T15:54:45;9.25;;;4.75;;
36547;SDS011;22551;52.206;4.856;2023-05-14T15:59:47;18.77;;;6.15;;
36547;SDS011;22551;52.206;4.856;2023-05-14T16:04:51;15.27;;;4.97;;
36547;SDS011;22551;52.206;4.856;2023-05-14T16:09:55;16.08;;;4.90;;
36547;SDS011;22551;52.206;4.856;2023-05-14T16:14:57;10.77;;;6.03;;
36547;SDS011;22551;52.206;4.856;2023-05-14T16:20:04;9.18;;;5.13;;
36547;SDS011;22551;52.206;4.856;2023-05-14T16:25:07;11.23;;;5.97;;
36547;SDS011;22551;52.206;4.856;2023-05-14T16:30:10;11.10;;;6.30;;
36547;SDS011;22551;52.206;4.856;2023-05-14T16:35:15;15.13;;;7.10;;
36547;SDS011;22551;52.206;4.856;2023-05-14T16:40:20;18.05;;;8.57;;
36547;SDS011;22551;52.206;4.856;2023-05-14T16:45:23;18.35;;;9.23;;
36547;SDS011;22551;52.206;4.856;2023-05-14T16:50:26;17.92;;;10.30;;
36547;SDS011;22551;52.206;4.856;2023-05-14T16:55:29;15.75;;;8.07;;
36547;SDS011;22551;52.206;4.856;2023-05-14T17:00:31;17.60;;;6.22;;
36547;SDS011;22551;52.206;4.856;2023-05-14T17:05:35;10.90;;;5.40;;
36547;SDS011;22551;52.206;4.856;2023-05-14T17:10:37;9.60;;;5.33;;
36547;SDS011;22551;52.206;4.856;2023-05-14T17:15:40;9.02;;;5.55;;
36547;SDS011;22551;52.206;4.856;2023-05-14T17:20:43;9.13;;;4.63;;
36547;SDS011;22551;52.206;4.856;2023-05-14T17:25:46;11.17;;;5.17;;
36547;SDS011;22551;52.206;4.856;2023-05-14T17:30:48;14.00;;;5.95;;
36547;SDS011;22551;52.206;4.856;2023-05-14T17:35:52;13.60;;;6.30;;
36547;SDS011;22551;52.206;4.856;2023-05-14T17:40:54;15.73;;;4.65;;
36547;SDS011;22551;52.206;4.856;2023-05-14T17:45:57;9.45;;;4.85;;
36547;SDS011;22551;52.206;4.856;2023-05-14T17:51:00;6.53;;;3.70;;
36547;SDS011;22551;52.206;4.856;2023-05-14T17:56:03;9.30;;;3.92;;
36547;SDS011;22551;52.206;4.856;2023-05-14T18:01:05;7.97;;;4.00;;
36547;SDS011;22551;52.206;4.856;2023-05-14T18:06:09;8.75;;;4.00;;
36547;SDS011;22551;52.206;4.856;2023-05-14T18:11:14;5.82;;;3.65;;
36547;SDS011;22551;52.206;4.856;2023-05-14T18:16:17;10.25;;;3.70;;
36547;SDS011;22551;52.206;4.856;2023-05-14T18:21:33;7.32;;;4.10;;
36547;SDS011;22551;52.206;4.856;2023-05-14T18:26:36;8.38;;;3.92;;
36547;SDS011;22551;52.206;4.856;2023-05-14T18:31:39;9.77;;;3.72;;
36547;SDS011;22551;52.206;4.856;2023-05-14T18:36:42;9.18;;;4.18;;
36547;SDS011;22551;52.206;4.856;2023-05-14T18:41:45;8.23;;;4.07;;
36547;SDS011;22551;52.206;4.856;2023-05-14T18:46:47;8.82;;;4.85;;
36547;SDS011;22551;52.206;4.856;2023-05-14T18:51:51;10.35;;;4.60;;
36547;SDS011;22551;52.206;4.856;2023-05-14T18:56:53;11.48;;;4.43;;
36547;SDS011;22551;52.206;4.856;2023-05-14T19:01:55;8.98;;;4.13;;
36547;SDS011;22551;52.206;4.856;2023-05-14T19:06:59;9.15;;;4.25;;
36547;SDS011;22551;52.206;4.856;2023-05-14T19:12:02;6.87;;;4.17;;
36547;SDS011;22551;52.206;4.856;2023-05-14T19:17:04;12.52;;;4.90;;
36547;SDS011;22551;52.206;4.856;2023-05-14T19:22:08;9.82;;;4.68;;
36547;SDS011;22551;52.206;4.856;2023-05-14T19:27:10;9.15;;;4.85;;
36547;SDS011;22551;52.206;4.856;2023-05-14T19:32:15;7.32;;;4.25;;
36547;SDS011;22551;52.206;4.856;2023-05-14T19:37:21;8.35;;;4.63;;
36547;SDS011;22551;52.206;4.856;2023-05-14T19:42:25;11.30;;;4.80;;
36547;SDS011;22551;52.206;4.856;2023-05-14T19:47:27;8.35;;;5.28;;
36547;SDS011;22551;52.206;4.856;2023-05-14T19:52:31;9.73;;;5.38;;
36547;SDS011;22551;52.206;4.856;2023-05-14T19:57:33;8.55;;;5.20;;
36547;SDS011;22551;52.206;4.856;2023-05-14T20:02:37;12.55;;;5.63;;
36547;SDS011;22551;52.206;4.856;2023-05-14T20:07:42;9.32;;;5.43;;
36547;SDS011;22551;52.206;4.856;2023-05-14T20:12:46;11.65;;;5.82;;
36547;SDS011;22551;52.206;4.856;2023-05-14T20:17:48;10.40;;;5.93;;
36547;SDS011;22551;52.206;4.856;2023-05-14T20:22:51;9.82;;;5.90;;
36547;SDS011;22551;52.206;4.856;2023-05-14T20:27:54;12.35;;;6.85;;
36547;SDS011;22551;52.206;4.856;2023-05-14T20:32:56;15.43;;;7.03;;
36547;SDS011;22551;52.206;4.856;2023-05-14T20:38:00;13.40;;;6.95;;
36547;SDS011;22551;52.206;4.856;2023-05-14T20:43:04;19.35;;;7.30;;
36547;SDS011;22551;52.206;4.856;2023-05-14T20:48:06;13.18;;;7.72;;
36547;SDS011;22551;52.206;4.856;2023-05-14T20:53:11;14.17;;;7.60;;
36547;SDS011;22551;52.206;4.856;2023-05-14T20:58:13;13.10;;;6.97;;
36547;SDS011;22551;52.206;4.856;2023-05-14T21:03:16;11.13;;;6.97;;
36547;SDS011;22551;52.206;4.856;2023-05-14T21:08:19;12.95;;;7.68;;
36547;SDS011;22551;52.206;4.856;2023-05-14T21:13:22;13.57;;;7.20;;
36547;SDS011;22551;52.206;4.856;2023-05-14T21:18:25;14.18;;;8.10;;
36547;SDS011;22551;52.206;4.856;2023-05-14T21:23:33;11.57;;;7.68;;
36547;SDS011;22551;52.206;4.856;2023-05-14T21:28:35;17.33;;;8.30;;
36547;SDS011;22551;52.206;4.856;2023-05-14T21:33:37;14.45;;;8.55;;
36547;SDS011;22551;52.206;4.856;2023-05-14T21:38:42;17.17;;;9.55;;
36547;SDS011;22551;52.206;4.856;2023-05-14T21:43:44;17.63;;;9.57;;
36547;SDS011;22551;52.206;4.856;2023-05-14T21:48:46;25.95;;;12.30;;
36547;SDS011;22551;52.206;4.856;2023-05-14T21:53:50;28.45;;;12.48;;
36547;SDS011;22551;52.206;4.856;2023-05-14T21:58:52;26.05;;;12.23;;
36547;SDS011;22551;52.206;4.856;2023-05-14T22:03:55;25.27;;;12.20;;
36547;SDS011;22551;52.206;4.856;2023-05-14T22:08:58;23.83;;;11.48;;
36547;SDS011;22551;52.206;4.856;2023-05-14T22:14:01;19.75;;;11.40;;
36547;SDS011;22551;52.206;4.856;2023-05-14T22:19:03;25.00;;;12.85;;
36547;SDS011;22551;52.206;4.856;2023-05-14T22:24:07;23.08;;;12.55;;
36547;SDS011;22551;52.206;4.856;2023-05-14T22:29:09;24.08;;;12.98;;
36547;SDS011;22551;52.206;4.856;2023-05-14T22:34:11;23.77;;;12.05;;
36547;SDS011;22551;52.206;4.856;2023-05-14T22:39:15;31.25;;;13.90;;
36547;SDS011;22551;52.206;4.856;2023-05-14T22:44:17;24.00;;;12.50;;
36547;SDS011;22551;52.206;4.856;2023-05-14T22:49:19;24.83;;;11.90;;
36547;SDS011;22551;52.206;4.856;2023-05-14T22:54:23;26.98;;;14.15;;
36547;SDS011;22551;52.206;4.856;2023-05-14T22:59:25;27.80;;;13.73;;
36547;SDS011;22551;52.206;4.856;2023-05-14T23:04:28;28.38;;;14.10;;
36547;SDS011;22551;52.206;4.856;2023-05-14T23:09:31;26.27;;;14.63;;
36547;SDS011;22551;52.206;4.856;2023-05-14T23:14:33;24.52;;;13.65;;
36547;SDS011;22551;52.206;4.856;2023-05-14T23:19:35;28.80;;;14.10;;
36547;SDS011;22551;52.206;4.856;2023-05-14T23:24:39;28.23;;;14.77;;
36547;SDS011;22551;52.206;4.856;2023-05-14T23:29:42;29.58;;;13.27;;
36547;SDS011;22551;52.206;4.856;2023-05-14T23:34:44;28.50;;;14.93;;
36547;SDS011;22551;52.206;4.856;2023-05-14T23:39:47;29.83;;;14.10;;
36547;SDS011;22551;52.206;4.856;2023-05-14T23:44:50;29.05;;;14.13;;
36547;SDS011;22551;52.206;4.856;2023-05-14T23:49:52;26.70;;;14.63;;
36547;SDS011;22551;52.206;4.856;2023-05-14T23:54:55;34.35;;;15.38;;
36547;SDS011;22551;52.206;4.856;2023-05-14T23:59:58;37.22;;;15.57;;
